Joseph, Oregon
Current Conditions -  °F | °C
As of 7:15 PM on Thursday 27 Nov 2014 (Local Time) from KLGD Reporting Station
Overcast Overcast  
Wind Chill: 52°   Ceiling: 6000
Heat Index: 52°   Visibility: 10mi
Dew Point: 37°   Wind: 14mph
Humidity: 58%   Direction: 190°S
Pressure: 29.93"   Gusts: NA
Location:  45.35°N, 117.23°W
Report Text: KLGD 280315Z AUTO 19012KT 10SM OVC060 11/03 A2993 RMK AO1
Loading
Personal Weather Stations






























Interactive Weather Map New forecast layout! Learn more

10-Day Weather Forecast

Advertisements
Track Severe Weather on mobile